sensor_id;sensor_type;location;lat;lon;timestamp;P1;durP1;ratioP1;P2;durP2;ratioP2
9420;SDS011;4749;51.398;5.466;2023-08-01T00:01:09;5.18;;;3.35;;
9420;SDS011;4749;51.398;5.466;2023-08-01T00:03:36;4.43;;;3.38;;
9420;SDS011;4749;51.398;5.466;2023-08-01T00:06:03;7.15;;;3.92;;
9420;SDS011;4749;51.398;5.466;2023-08-01T00:08:30;5.30;;;4.03;;
9420;SDS011;4749;51.398;5.466;2023-08-01T00:10:57;5.28;;;3.97;;
9420;SDS011;4749;51.398;5.466;2023-08-01T00:13:24;6.15;;;4.70;;
9420;SDS011;4749;51.398;5.466;2023-08-01T00:15:51;7.47;;;4.88;;
9420;SDS011;4749;51.398;5.466;2023-08-01T00:18:33;8.38;;;5.50;;
9420;SDS011;4749;51.398;5.466;2023-08-01T00:21:00;7.93;;;5.88;;
9420;SDS011;4749;51.398;5.466;2023-08-01T00:23:28;10.35;;;6.68;;
9420;SDS011;4749;51.398;5.466;2023-08-01T00:25:55;7.38;;;6.60;;
9420;SDS011;4749;51.398;5.466;2023-08-01T00:28:22;12.32;;;10.30;;
9420;SDS011;4749;51.398;5.466;2023-08-01T00:30:49;11.40;;;8.52;;
9420;SDS011;4749;51.398;5.466;2023-08-01T00:33:16;15.80;;;10.20;;
9420;SDS011;4749;51.398;5.466;2023-08-01T00:35:44;12.07;;;10.77;;
9420;SDS011;4749;51.398;5.466;2023-08-01T00:38:11;13.65;;;11.45;;
9420;SDS011;4749;51.398;5.466;2023-08-01T00:40:38;13.15;;;10.48;;
9420;SDS011;4749;51.398;5.466;2023-08-01T00:43:05;12.88;;;11.10;;
9420;SDS011;4749;51.398;5.466;2023-08-01T00:45:32;15.07;;;12.23;;
9420;SDS011;4749;51.398;5.466;2023-08-01T00:47:59;15.48;;;12.38;;
9420;SDS011;4749;51.398;5.466;2023-08-01T00:50:26;16.23;;;12.32;;
9420;SDS011;4749;51.398;5.466;2023-08-01T00:52:53;15.88;;;13.18;;
9420;SDS011;4749;51.398;5.466;2023-08-01T00:55:21;15.18;;;11.95;;
9420;SDS011;4749;51.398;5.466;2023-08-01T00:57:49;16.08;;;12.43;;
9420;SDS011;4749;51.398;5.466;2023-08-01T01:00:18;19.92;;;13.23;;
9420;SDS011;4749;51.398;5.466;2023-08-01T01:02:45;17.67;;;11.57;;
9420;SDS011;4749;51.398;5.466;2023-08-01T01:05:13;19.17;;;11.90;;
9420;SDS011;4749;51.398;5.466;2023-08-01T01:07:41;21.85;;;12.88;;
9420;SDS011;4749;51.398;5.466;2023-08-01T01:10:10;17.98;;;12.32;;
9420;SDS011;4749;51.398;5.466;2023-08-01T01:12:37;16.17;;;11.68;;
9420;SDS011;4749;51.398;5.466;2023-08-01T01:15:04;20.38;;;11.52;;
9420;SDS011;4749;51.398;5.466;2023-08-01T01:17:32;14.40;;;11.18;;
9420;SDS011;4749;51.398;5.466;2023-08-01T01:19:59;17.63;;;11.40;;
9420;SDS011;4749;51.398;5.466;2023-08-01T01:22:26;16.58;;;10.30;;
9420;SDS011;4749;51.398;5.466;2023-08-01T01:24:55;19.98;;;10.23;;
9420;SDS011;4749;51.398;5.466;2023-08-01T01:27:23;20.08;;;9.55;;
9420;SDS011;4749;51.398;5.466;2023-08-01T01:29:52;15.25;;;9.70;;
9420;SDS011;4749;51.398;5.466;2023-08-01T01:32:21;16.58;;;9.80;;
9420;SDS011;4749;51.398;5.466;2023-08-01T01:34:49;17.77;;;9.85;;
9420;SDS011;4749;51.398;5.466;2023-08-01T01:37:18;19.00;;;10.00;;
9420;SDS011;4749;51.398;5.466;2023-08-01T01:39:45;16.33;;;8.98;;
9420;SDS011;4749;51.398;5.466;2023-08-01T01:42:12;14.18;;;8.70;;
9420;SDS011;4749;51.398;5.466;2023-08-01T01:44:39;16.13;;;9.43;;
9420;SDS011;4749;51.398;5.466;2023-08-01T01:47:06;15.40;;;9.07;;
9420;SDS011;4749;51.398;5.466;2023-08-01T01:49:33;20.23;;;9.27;;
9420;SDS011;4749;51.398;5.466;2023-08-01T01:52:00;20.75;;;9.25;;
9420;SDS011;4749;51.398;5.466;2023-08-01T01:54:28;19.92;;;10.15;;
9420;SDS011;4749;51.398;5.466;2023-08-01T01:56:55;23.50;;;10.45;;
9420;SDS011;4749;51.398;5.466;2023-08-01T01:59:22;19.95;;;10.90;;
9420;SDS011;4749;51.398;5.466;2023-08-01T02:01:49;19.67;;;11.18;;
9420;SDS011;4749;51.398;5.466;2023-08-01T02:04:16;19.73;;;12.13;;
9420;SDS011;4749;51.398;5.466;2023-08-01T02:06:43;26.15;;;12.00;;
9420;SDS011;4749;51.398;5.466;2023-08-01T02:09:10;21.55;;;12.10;;
9420;SDS011;4749;51.398;5.466;2023-08-01T02:11:37;25.75;;;12.80;;
9420;SDS011;4749;51.398;5.466;2023-08-01T02:14:04;23.50;;;13.23;;
9420;SDS011;4749;51.398;5.466;2023-08-01T02:16:31;21.38;;;12.73;;
9420;SDS011;4749;51.398;5.466;2023-08-01T02:18:58;25.52;;;13.60;;
9420;SDS011;4749;51.398;5.466;2023-08-01T02:21:25;26.88;;;15.30;;
9420;SDS011;4749;51.398;5.466;2023-08-01T02:23:53;30.30;;;14.38;;
9420;SDS011;4749;51.398;5.466;2023-08-01T02:26:20;24.95;;;14.02;;
9420;SDS011;4749;51.398;5.466;2023-08-01T02:28:49;28.13;;;16.23;;
9420;SDS011;4749;51.398;5.466;2023-08-01T02:31:16;32.67;;;14.98;;
9420;SDS011;4749;51.398;5.466;2023-08-01T02:33:44;31.05;;;15.75;;
9420;SDS011;4749;51.398;5.466;2023-08-01T02:36:11;26.00;;;14.20;;
9420;SDS011;4749;51.398;5.466;2023-08-01T02:38:38;31.60;;;17.17;;
9420;SDS011;4749;51.398;5.466;2023-08-01T02:41:05;29.92;;;14.80;;
9420;SDS011;4749;51.398;5.466;2023-08-01T02:43:32;23.85;;;15.55;;
9420;SDS011;4749;51.398;5.466;2023-08-01T02:46:01;31.85;;;17.52;;
9420;SDS011;4749;51.398;5.466;2023-08-01T02:48:28;32.00;;;17.40;;
9420;SDS011;4749;51.398;5.466;2023-08-01T02:50:55;32.05;;;17.10;;
9420;SDS011;4749;51.398;5.466;2023-08-01T02:53:23;27.25;;;16.65;;
9420;SDS011;4749;51.398;5.466;2023-08-01T02:55:50;29.05;;;17.25;;
9420;SDS011;4749;51.398;5.466;2023-08-01T02:58:17;32.17;;;18.63;;
9420;SDS011;4749;51.398;5.466;2023-08-01T03:00:44;35.97;;;20.55;;
9420;SDS011;4749;51.398;5.466;2023-08-01T03:03:14;40.38;;;20.40;;
9420;SDS011;4749;51.398;5.466;2023-08-01T03:05:42;37.13;;;21.02;;
9420;SDS011;4749;51.398;5.466;2023-08-01T03:08:09;30.85;;;19.38;;
9420;SDS011;4749;51.398;5.466;2023-08-01T03:10:36;34.85;;;20.90;;
9420;SDS011;4749;51.398;5.466;2023-08-01T03:13:03;33.88;;;20.20;;
9420;SDS011;4749;51.398;5.466;2023-08-01T03:15:30;32.05;;;20.60;;
9420;SDS011;4749;51.398;5.466;2023-08-01T03:17:58;35.28;;;20.20;;
9420;SDS011;4749;51.398;5.466;2023-08-01T03:20:25;36.95;;;21.83;;
9420;SDS011;4749;51.398;5.466;2023-08-01T03:22:52;38.05;;;22.30;;
9420;SDS011;4749;51.398;5.466;2023-08-01T03:25:19;37.70;;;22.27;;
9420;SDS011;4749;51.398;5.466;2023-08-01T03:27:46;38.65;;;23.00;;
9420;SDS011;4749;51.398;5.466;2023-08-01T03:30:13;33.88;;;22.08;;
9420;SDS011;4749;51.398;5.466;2023-08-01T03:32:40;39.50;;;22.40;;
9420;SDS011;4749;51.398;5.466;2023-08-01T03:35:08;36.65;;;23.58;;
9420;SDS011;4749;51.398;5.466;2023-08-01T03:37:35;45.60;;;23.80;;
9420;SDS011;4749;51.398;5.466;2023-08-01T03:40:02;41.42;;;22.92;;
9420;SDS011;4749;51.398;5.466;2023-08-01T03:42:29;43.20;;;24.10;;
9420;SDS011;4749;51.398;5.466;2023-08-01T03:44:56;42.15;;;24.13;;
9420;SDS011;4749;51.398;5.466;2023-08-01T03:47:23;34.83;;;22.00;;
9420;SDS011;4749;51.398;5.466;2023-08-01T03:49:51;39.15;;;24.27;;
9420;SDS011;4749;51.398;5.466;2023-08-01T03:52:18;44.28;;;23.02;;
9420;SDS011;4749;51.398;5.466;2023-08-01T03:54:45;40.47;;;22.88;;
9420;SDS011;4749;51.398;5.466;2023-08-01T03:57:12;38.75;;;22.33;;
9420;SDS011;4749;51.398;5.466;2023-08-01T03:59:40;39.05;;;22.30;;
9420;SDS011;4749;51.398;5.466;2023-08-01T04:02:08;37.75;;;22.40;;
9420;SDS011;4749;51.398;5.466;2023-08-01T04:04:35;39.65;;;23.02;;
9420;SDS011;4749;51.398;5.466;2023-08-01T04:07:02;41.92;;;23.15;;
9420;SDS011;4749;51.398;5.466;2023-08-01T04:09:30;36.53;;;21.00;;
9420;SDS011;4749;51.398;5.466;2023-08-01T04:11:57;40.13;;;21.52;;
9420;SDS011;4749;51.398;5.466;2023-08-01T04:14:24;37.47;;;21.50;;
9420;SDS011;4749;51.398;5.466;2023-08-01T04:16:52;41.75;;;20.48;;
9420;SDS011;4749;51.398;5.466;2023-08-01T04:19:19;33.80;;;20.98;;
9420;SDS011;4749;51.398;5.466;2023-08-01T04:21:46;35.72;;;19.77;;
9420;SDS011;4749;51.398;5.466;2023-08-01T04:24:13;36.20;;;19.83;;
9420;SDS011;4749;51.398;5.466;2023-08-01T04:26:40;36.40;;;20.33;;
9420;SDS011;4749;51.398;5.466;2023-08-01T04:29:07;37.05;;;21.23;;
9420;SDS011;4749;51.398;5.466;2023-08-01T04:31:34;33.88;;;19.70;;
9420;SDS011;4749;51.398;5.466;2023-08-01T04:34:02;40.33;;;20.95;;
9420;SDS011;4749;51.398;5.466;2023-08-01T04:36:29;31.15;;;19.90;;
9420;SDS011;4749;51.398;5.466;2023-08-01T04:38:56;35.33;;;18.98;;
9420;SDS011;4749;51.398;5.466;2023-08-01T04:41:23;30.92;;;17.55;;
9420;SDS011;4749;51.398;5.466;2023-08-01T04:43:50;30.35;;;18.67;;
9420;SDS011;4749;51.398;5.466;2023-08-01T04:46:17;32.13;;;18.60;;
9420;SDS011;4749;51.398;5.466;2023-08-01T04:48:44;27.77;;;17.38;;
9420;SDS011;4749;51.398;5.466;2023-08-01T04:51:11;29.70;;;15.88;;
9420;SDS011;4749;51.398;5.466;2023-08-01T04:53:38;32.05;;;18.10;;
9420;SDS011;4749;51.398;5.466;2023-08-01T04:56:05;34.17;;;17.17;;
9420;SDS011;4749;51.398;5.466;2023-08-01T04:58:32;30.45;;;17.92;;
9420;SDS011;4749;51.398;5.466;2023-08-01T05:00:59;28.83;;;16.42;;
9420;SDS011;4749;51.398;5.466;2023-08-01T05:03:26;25.05;;;16.45;;
9420;SDS011;4749;51.398;5.466;2023-08-01T05:05:54;26.60;;;17.05;;
9420;SDS011;4749;51.398;5.466;2023-08-01T05:08:21;28.38;;;16.50;;
9420;SDS011;4749;51.398;5.466;2023-08-01T05:10:48;26.77;;;15.95;;
9420;SDS011;4749;51.398;5.466;2023-08-01T05:13:15;28.08;;;16.48;;
9420;SDS011;4749;51.398;5.466;2023-08-01T05:15:45;32.88;;;16.10;;
9420;SDS011;4749;51.398;5.466;2023-08-01T05:18:14;26.83;;;15.55;;
9420;SDS011;4749;51.398;5.466;2023-08-01T05:20:43;32.65;;;15.88;;
9420;SDS011;4749;51.398;5.466;2023-08-01T05:23:10;25.25;;;15.77;;
9420;SDS011;4749;51.398;5.466;2023-08-01T05:25:37;27.08;;;16.00;;
9420;SDS011;4749;51.398;5.466;2023-08-01T05:28:04;26.52;;;15.13;;
9420;SDS011;4749;51.398;5.466;2023-08-01T05:30:31;24.00;;;15.80;;
9420;SDS011;4749;51.398;5.466;2023-08-01T05:32:59;25.02;;;15.48;;
9420;SDS011;4749;51.398;5.466;2023-08-01T05:35:26;26.38;;;15.80;;
9420;SDS011;4749;51.398;5.466;2023-08-01T05:37:53;29.27;;;16.02;;
9420;SDS011;4749;51.398;5.466;2023-08-01T05:40:20;27.88;;;16.20;;
9420;SDS011;4749;51.398;5.466;2023-08-01T05:42:47;29.25;;;15.30;;
9420;SDS011;4749;51.398;5.466;2023-08-01T05:45:14;32.90;;;16.00;;
9420;SDS011;4749;51.398;5.466;2023-08-01T05:47:42;26.38;;;15.32;;
9420;SDS011;4749;51.398;5.466;2023-08-01T05:50:09;29.35;;;15.60;;
9420;SDS011;4749;51.398;5.466;2023-08-01T05:52:36;23.25;;;14.68;;
9420;SDS011;4749;51.398;5.466;2023-08-01T05:55:04;22.60;;;15.93;;
9420;SDS011;4749;51.398;5.466;2023-08-01T05:57:32;23.20;;;14.93;;
9420;SDS011;4749;51.398;5.466;2023-08-01T05:59:59;23.42;;;15.02;;
9420;SDS011;4749;51.398;5.466;2023-08-01T06:02:26;22.48;;;14.45;;
9420;SDS011;4749;51.398;5.466;2023-08-01T06:04:53;22.42;;;15.40;;
9420;SDS011;4749;51.398;5.466;2023-08-01T06:07:20;26.05;;;14.20;;
9420;SDS011;4749;51.398;5.466;2023-08-01T06:09:50;25.05;;;14.55;;
9420;SDS011;4749;51.398;5.466;2023-08-01T06:12:20;24.10;;;13.95;;
9420;SDS011;4749;51.398;5.466;2023-08-01T06:14:47;20.90;;;12.98;;
9420;SDS011;4749;51.398;5.466;2023-08-01T06:17:14;20.50;;;14.05;;
9420;SDS011;4749;51.398;5.466;2023-08-01T06:19:42;25.33;;;13.93;;
9420;SDS011;4749;51.398;5.466;2023-08-01T06:22:09;22.38;;;13.40;;
9420;SDS011;4749;51.398;5.466;2023-08-01T06:24:36;19.90;;;13.45;;
9420;SDS011;4749;51.398;5.466;2023-08-01T06:27:03;22.00;;;14.02;;
9420;SDS011;4749;51.398;5.466;2023-08-01T06:29:31;21.58;;;13.40;;
9420;SDS011;4749;51.398;5.466;2023-08-01T06:31:59;20.40;;;13.30;;
9420;SDS011;4749;51.398;5.466;2023-08-01T06:34:26;21.25;;;13.75;;
9420;SDS011;4749;51.398;5.466;2023-08-01T06:36:53;20.55;;;13.10;;
9420;SDS011;4749;51.398;5.466;2023-08-01T06:39:20;20.15;;;12.43;;
9420;SDS011;4749;51.398;5.466;2023-08-01T06:41:47;22.98;;;12.93;;
9420;SDS011;4749;51.398;5.466;2023-08-01T06:44:14;21.25;;;13.05;;
9420;SDS011;4749;51.398;5.466;2023-08-01T06:46:41;18.52;;;10.98;;
9420;SDS011;4749;51.398;5.466;2023-08-01T06:49:09;19.55;;;10.48;;
9420;SDS011;4749;51.398;5.466;2023-08-01T06:51:36;13.40;;;9.68;;
9420;SDS011;4749;51.398;5.466;2023-08-01T06:54:03;17.90;;;10.23;;
9420;SDS011;4749;51.398;5.466;2023-08-01T06:56:30;16.52;;;11.13;;
9420;SDS011;4749;51.398;5.466;2023-08-01T06:58:57;14.35;;;11.00;;
9420;SDS011;4749;51.398;5.466;2023-08-01T07:01:25;17.92;;;10.77;;
9420;SDS011;4749;51.398;5.466;2023-08-01T07:03:53;15.52;;;10.40;;
9420;SDS011;4749;51.398;5.466;2023-08-01T07:06:20;20.85;;;11.65;;
9420;SDS011;4749;51.398;5.466;2023-08-01T07:08:47;14.10;;;9.55;;
9420;SDS011;4749;51.398;5.466;2023-08-01T07:11:14;12.45;;;9.25;;
9420;SDS011;4749;51.398;5.466;2023-08-01T07:13:41;15.95;;;9.18;;
9420;SDS011;4749;51.398;5.466;2023-08-01T07:16:08;17.80;;;9.70;;
9420;SDS011;4749;51.398;5.466;2023-08-01T07:18:35;12.18;;;8.48;;
9420;SDS011;4749;51.398;5.466;2023-08-01T07:21:03;12.90;;;8.32;;
9420;SDS011;4749;51.398;5.466;2023-08-01T07:23:31;14.10;;;8.20;;
9420;SDS011;4749;51.398;5.466;2023-08-01T07:26:01;12.38;;;7.88;;
9420;SDS011;4749;51.398;5.466;2023-08-01T07:28:29;15.13;;;8.15;;
9420;SDS011;4749;51.398;5.466;2023-08-01T07:33:34;12.07;;;7.35;;
9420;SDS011;4749;51.398;5.466;2023-08-01T07:36:02;12.57;;;6.70;;
9420;SDS011;4749;51.398;5.466;2023-08-01T07:38:29;11.95;;;7.35;;
9420;SDS011;4749;51.398;5.466;2023-08-01T07:41:03;10.10;;;6.55;;
9420;SDS011;4749;51.398;5.466;2023-08-01T07:43:31;13.18;;;6.85;;
9420;SDS011;4749;51.398;5.466;2023-08-01T07:45:58;11.68;;;6.65;;
9420;SDS011;4749;51.398;5.466;2023-08-01T07:48:26;10.00;;;5.97;;
9420;SDS011;4749;51.398;5.466;2023-08-01T07:50:53;10.52;;;5.30;;
9420;SDS011;4749;51.398;5.466;2023-08-01T07:53:20;11.05;;;6.22;;
9420;SDS011;4749;51.398;5.466;2023-08-01T07:55:48;8.95;;;5.13;;
9420;SDS011;4749;51.398;5.466;2023-08-01T07:58:15;10.82;;;6.07;;
9420;SDS011;4749;51.398;5.466;2023-08-01T08:00:43;10.77;;;6.22;;
9420;SDS011;4749;51.398;5.466;2023-08-01T08:03:10;9.45;;;6.15;;
9420;SDS011;4749;51.398;5.466;2023-08-01T08:05:37;12.50;;;6.40;;
9420;SDS011;4749;51.398;5.466;2023-08-01T08:08:05;12.70;;;6.72;;
9420;SDS011;4749;51.398;5.466;2023-08-01T08:10:32;13.38;;;7.72;;
9420;SDS011;4749;51.398;5.466;2023-08-01T08:12:59;11.13;;;7.47;;
9420;SDS011;4749;51.398;5.466;2023-08-01T08:15:26;11.80;;;7.35;;
9420;SDS011;4749;51.398;5.466;2023-08-01T08:17:54;13.13;;;7.53;;
9420;SDS011;4749;51.398;5.466;2023-08-01T08:20:21;13.15;;;7.90;;
9420;SDS011;4749;51.398;5.466;2023-08-01T08:22:48;14.32;;;7.78;;
9420;SDS011;4749;51.398;5.466;2023-08-01T08:25:15;10.15;;;7.53;;
9420;SDS011;4749;51.398;5.466;2023-08-01T08:27:42;14.35;;;7.55;;
9420;SDS011;4749;51.398;5.466;2023-08-01T08:30:09;14.57;;;7.78;;
9420;SDS011;4749;51.398;5.466;2023-08-01T08:32:37;12.50;;;7.75;;
9420;SDS011;4749;51.398;5.466;2023-08-01T08:35:04;11.25;;;7.25;;
9420;SDS011;4749;51.398;5.466;2023-08-01T08:37:31;11.38;;;7.18;;
9420;SDS011;4749;51.398;5.466;2023-08-01T08:39:59;14.20;;;6.38;;
9420;SDS011;4749;51.398;5.466;2023-08-01T08:42:26;14.90;;;6.47;;
9420;SDS011;4749;51.398;5.466;2023-08-01T08:44:54;11.25;;;6.28;;
9420;SDS011;4749;51.398;5.466;2023-08-01T08:47:25;10.52;;;6.03;;
9420;SDS011;4749;51.398;5.466;2023-08-01T08:49:57;11.52;;;6.15;;
9420;SDS011;4749;51.398;5.466;2023-08-01T08:52:25;11.88;;;5.75;;
9420;SDS011;4749;51.398;5.466;2023-08-01T08:54:52;10.07;;;5.57;;
9420;SDS011;4749;51.398;5.466;2023-08-01T08:57:21;9.45;;;5.43;;
9420;SDS011;4749;51.398;5.466;2023-08-01T08:59:48;12.35;;;5.82;;
9420;SDS011;4749;51.398;5.466;2023-08-01T09:02:17;8.20;;;5.28;;
9420;SDS011;4749;51.398;5.466;2023-08-01T09:04:44;10.57;;;5.80;;
9420;SDS011;4749;51.398;5.466;2023-08-01T09:07:12;7.50;;;4.85;;
9420;SDS011;4749;51.398;5.466;2023-08-01T09:09:41;10.52;;;5.00;;
9420;SDS011;4749;51.398;5.466;2023-08-01T09:12:09;10.25;;;4.32;;
9420;SDS011;4749;51.398;5.466;2023-08-01T09:14:36;6.90;;;4.40;;
9420;SDS011;4749;51.398;5.466;2023-08-01T09:17:07;9.38;;;4.00;;
9420;SDS011;4749;51.398;5.466;2023-08-01T09:19:35;6.78;;;3.95;;
9420;SDS011;4749;51.398;5.466;2023-08-01T09:22:09;6.97;;;3.80;;
9420;SDS011;4749;51.398;5.466;2023-08-01T09:24:50;8.32;;;4.72;;
9420;SDS011;4749;51.398;5.466;2023-08-01T09:27:20;8.45;;;4.60;;
9420;SDS011;4749;51.398;5.466;2023-08-01T09:29:49;8.32;;;4.93;;
9420;SDS011;4749;51.398;5.466;2023-08-01T09:32:16;9.15;;;5.40;;
9420;SDS011;4749;51.398;5.466;2023-08-01T09:34:44;11.15;;;4.72;;
9420;SDS011;4749;51.398;5.466;2023-08-01T09:37:11;9.90;;;4.18;;
9420;SDS011;4749;51.398;5.466;2023-08-01T09:39:38;7.93;;;3.60;;
9420;SDS011;4749;51.398;5.466;2023-08-01T09:42:06;7.82;;;3.80;;
9420;SDS011;4749;51.398;5.466;2023-08-01T09:44:34;6.82;;;3.03;;
9420;SDS011;4749;51.398;5.466;2023-08-01T09:47:03;6.93;;;2.50;;
9420;SDS011;4749;51.398;5.466;2023-08-01T09:49:33;5.97;;;2.35;;
9420;SDS011;4749;51.398;5.466;2023-08-01T09:52:02;4.82;;;2.17;;
9420;SDS011;4749;51.398;5.466;2023-08-01T09:54:30;6.10;;;2.58;;
9420;SDS011;4749;51.398;5.466;2023-08-01T09:56:57;6.47;;;2.25;;
9420;SDS011;4749;51.398;5.466;2023-08-01T09:59:26;7.82;;;2.53;;
9420;SDS011;4749;51.398;5.466;2023-08-01T10:01:53;5.65;;;3.08;;
9420;SDS011;4749;51.398;5.466;2023-08-01T10:04:31;7.45;;;2.70;;
9420;SDS011;4749;51.398;5.466;2023-08-01T10:07:04;5.20;;;2.42;;
9420;SDS011;4749;51.398;5.466;2023-08-01T10:09:38;5.65;;;2.25;;
9420;SDS011;4749;51.398;5.466;2023-08-01T10:12:07;5.25;;;2.08;;
9420;SDS011;4749;51.398;5.466;2023-08-01T10:14:35;7.72;;;2.70;;
9420;SDS011;4749;51.398;5.466;2023-08-01T10:17:04;5.90;;;2.22;;
9420;SDS011;4749;51.398;5.466;2023-08-01T10:19:32;5.72;;;2.40;;
9420;SDS011;4749;51.398;5.466;2023-08-01T10:21:59;5.13;;;2.60;;
9420;SDS011;4749;51.398;5.466;2023-08-01T10:24:27;7.32;;;2.55;;
9420;SDS011;4749;51.398;5.466;2023-08-01T10:26:56;5.80;;;2.83;;
9420;SDS011;4749;51.398;5.466;2023-08-01T10:29:34;6.20;;;2.40;;
9420;SDS011;4749;51.398;5.466;2023-08-01T10:32:02;6.30;;;2.13;;
9420;SDS011;4749;51.398;5.466;2023-08-01T10:34:32;4.60;;;1.80;;
9420;SDS011;4749;51.398;5.466;2023-08-01T10:37:00;8.82;;;2.30;;
9420;SDS011;4749;51.398;5.466;2023-08-01T10:39:28;6.00;;;2.20;;
9420;SDS011;4749;51.398;5.466;2023-08-01T10:42:04;3.60;;;1.70;;
9420;SDS011;4749;51.398;5.466;2023-08-01T10:44:32;4.82;;;2.30;;
9420;SDS011;4749;51.398;5.466;2023-08-01T10:47:02;9.18;;;2.40;;
9420;SDS011;4749;51.398;5.466;2023-08-01T10:52:20;5.90;;;1.77;;
9420;SDS011;4749;51.398;5.466;2023-08-01T10:57:27;4.70;;;1.73;;
9420;SDS011;4749;51.398;5.466;2023-08-01T10:59:57;3.65;;;1.77;;
9420;SDS011;4749;51.398;5.466;2023-08-01T11:02:26;3.72;;;1.50;;
9420;SDS011;4749;51.398;5.466;2023-08-01T11:04:55;7.95;;;1.77;;
9420;SDS011;4749;51.398;5.466;2023-08-01T11:07:26;8.07;;;2.13;;
9420;SDS011;4749;51.398;5.466;2023-08-01T11:10:04;10.88;;;2.00;;
9420;SDS011;4749;51.398;5.466;2023-08-01T11:12:38;6.15;;;1.83;;
9420;SDS011;4749;51.398;5.466;2023-08-01T11:15:07;5.70;;;1.50;;
9420;SDS011;4749;51.398;5.466;2023-08-01T11:17:40;6.78;;;1.80;;
9420;SDS011;4749;51.398;5.466;2023-08-01T11:20:13;6.40;;;1.73;;
9420;SDS011;4749;51.398;5.466;2023-08-01T11:22:57;4.75;;;1.60;;
9420;SDS011;4749;51.398;5.466;2023-08-01T11:25:38;4.57;;;1.92;;
9420;SDS011;4749;51.398;5.466;2023-08-01T11:28:13;5.35;;;1.83;;
9420;SDS011;4749;51.398;5.466;2023-08-01T11:30:42;8.73;;;2.03;;
9420;SDS011;4749;51.398;5.466;2023-08-01T11:33:14;3.63;;;1.80;;
9420;SDS011;4749;51.398;5.466;2023-08-01T11:35:53;7.28;;;1.80;;
9420;SDS011;4749;51.398;5.466;2023-08-01T11:38:25;5.90;;;2.03;;
9420;SDS011;4749;51.398;5.466;2023-08-01T11:40:59;8.05;;;1.60;;
9420;SDS011;4749;51.398;5.466;2023-08-01T11:43:40;7.72;;;2.05;;
9420;SDS011;4749;51.398;5.466;2023-08-01T11:46:10;3.05;;;1.30;;
9420;SDS011;4749;51.398;5.466;2023-08-01T11:48:38;7.15;;;1.85;;
9420;SDS011;4749;51.398;5.466;2023-08-01T11:51:05;3.70;;;1.42;;
9420;SDS011;4749;51.398;5.466;2023-08-01T11:53:32;4.90;;;1.60;;
9420;SDS011;4749;51.398;5.466;2023-08-01T11:56:05;4.82;;;1.23;;
9420;SDS011;4749;51.398;5.466;2023-08-01T12:01:06;4.13;;;1.60;;
9420;SDS011;4749;51.398;5.466;2023-08-01T12:03:45;5.50;;;1.45;;
9420;SDS011;4749;51.398;5.466;2023-08-01T12:06:18;6.80;;;1.90;;
9420;SDS011;4749;51.398;5.466;2023-08-01T12:08:49;4.70;;;1.73;;
9420;SDS011;4749;51.398;5.466;2023-08-01T12:14:27;5.10;;;1.50;;
9420;SDS011;4749;51.398;5.466;2023-08-01T12:16:47;4.82;;;1.67;;
9420;SDS011;4749;51.398;5.466;2023-08-01T12:19:17;5.53;;;1.65;;
9420;SDS011;4749;51.398;5.466;2023-08-01T12:21:46;5.82;;;1.20;;
9420;SDS011;4749;51.398;5.466;2023-08-01T12:24:14;3.65;;;1.27;;
9420;SDS011;4749;51.398;5.466;2023-08-01T12:26:42;3.83;;;1.48;;
9420;SDS011;4749;51.398;5.466;2023-08-01T12:29:10;4.43;;;1.40;;
9420;SDS011;4749;51.398;5.466;2023-08-01T12:31:38;3.58;;;1.40;;
9420;SDS011;4749;51.398;5.466;2023-08-01T12:34:06;4.63;;;1.83;;
9420;SDS011;4749;51.398;5.466;2023-08-01T12:36:33;5.45;;;1.83;;
9420;SDS011;4749;51.398;5.466;2023-08-01T12:39:00;4.45;;;1.70;;
9420;SDS011;4749;51.398;5.466;2023-08-01T12:41:27;3.65;;;1.25;;
9420;SDS011;4749;51.398;5.466;2023-08-01T12:43:54;5.45;;;1.42;;
9420;SDS011;4749;51.398;5.466;2023-08-01T12:46:21;6.80;;;2.35;;
9420;SDS011;4749;51.398;5.466;2023-08-01T12:48:49;7.63;;;1.60;;
9420;SDS011;4749;51.398;5.466;2023-08-01T12:51:16;4.38;;;1.50;;
9420;SDS011;4749;51.398;5.466;2023-08-01T12:53:43;5.72;;;1.60;;
9420;SDS011;4749;51.398;5.466;2023-08-01T12:56:10;4.63;;;1.67;;
9420;SDS011;4749;51.398;5.466;2023-08-01T12:58:37;4.47;;;1.40;;
9420;SDS011;4749;51.398;5.466;2023-08-01T13:01:05;5.10;;;1.40;;
9420;SDS011;4749;51.398;5.466;2023-08-01T13:03:33;4.35;;;1.52;;
9420;SDS011;4749;51.398;5.466;2023-08-01T13:06:00;4.05;;;1.30;;
9420;SDS011;4749;51.398;5.466;2023-08-01T13:08:27;8.38;;;2.40;;
9420;SDS011;4749;51.398;5.466;2023-08-01T13:10:56;3.85;;;1.33;;
9420;SDS011;4749;51.398;5.466;2023-08-01T13:13:26;4.57;;;1.50;;
9420;SDS011;4749;51.398;5.466;2023-08-01T13:15:53;5.18;;;1.40;;
9420;SDS011;4749;51.398;5.466;2023-08-01T13:18:22;7.80;;;1.50;;
9420;SDS011;4749;51.398;5.466;2023-08-01T13:20:49;6.68;;;1.52;;
9420;SDS011;4749;51.398;5.466;2023-08-01T13:23:16;5.63;;;1.60;;
9420;SDS011;4749;51.398;5.466;2023-08-01T13:25:44;4.88;;;1.60;;
9420;SDS011;4749;51.398;5.466;2023-08-01T13:28:12;5.35;;;1.40;;
9420;SDS011;4749;51.398;5.466;2023-08-01T13:30:39;3.58;;;1.33;;
9420;SDS011;4749;51.398;5.466;2023-08-01T13:33:06;4.32;;;1.40;;
9420;SDS011;4749;51.398;5.466;2023-08-01T13:35:34;3.30;;;1.30;;
9420;SDS011;4749;51.398;5.466;2023-08-01T13:38:01;6.38;;;1.50;;
9420;SDS011;4749;51.398;5.466;2023-08-01T13:40:29;7.38;;;1.33;;
9420;SDS011;4749;51.398;5.466;2023-08-01T13:42:57;4.88;;;1.20;;
9420;SDS011;4749;51.398;5.466;2023-08-01T13:45:24;5.28;;;1.58;;
9420;SDS011;4749;51.398;5.466;2023-08-01T13:47:51;7.00;;;1.52;;
9420;SDS011;4749;51.398;5.466;2023-08-01T13:50:18;5.57;;;1.63;;
9420;SDS011;4749;51.398;5.466;2023-08-01T13:52:45;3.15;;;1.30;;
9420;SDS011;4749;51.398;5.466;2023-08-01T13:55:12;3.28;;;1.17;;
9420;SDS011;4749;51.398;5.466;2023-08-01T13:57:43;5.22;;;1.10;;
9420;SDS011;4749;51.398;5.466;2023-08-01T14:00:10;3.65;;;1.10;;
9420;SDS011;4749;51.398;5.466;2023-08-01T14:02:39;4.43;;;1.23;;
9420;SDS011;4749;51.398;5.466;2023-08-01T14:05:07;3.95;;;1.40;;
9420;SDS011;4749;51.398;5.466;2023-08-01T14:07:35;4.53;;;1.17;;
9420;SDS011;4749;51.398;5.466;2023-08-01T14:10:07;4.72;;;1.30;;
9420;SDS011;4749;51.398;5.466;2023-08-01T14:12:37;8.27;;;1.52;;
9420;SDS011;4749;51.398;5.466;2023-08-01T14:15:04;4.35;;;1.27;;
9420;SDS011;4749;51.398;5.466;2023-08-01T14:17:33;5.05;;;1.15;;
9420;SDS011;4749;51.398;5.466;2023-08-01T14:20:00;4.80;;;1.30;;
9420;SDS011;4749;51.398;5.466;2023-08-01T14:22:30;4.18;;;1.10;;
9420;SDS011;4749;51.398;5.466;2023-08-01T14:24:57;4.25;;;1.13;;
9420;SDS011;4749;51.398;5.466;2023-08-01T14:27:24;2.80;;;1.13;;
9420;SDS011;4749;51.398;5.466;2023-08-01T14:29:52;2.00;;;1.05;;
9420;SDS011;4749;51.398;5.466;2023-08-01T14:32:19;3.75;;;1.45;;
9420;SDS011;4749;51.398;5.466;2023-08-01T14:34:46;3.30;;;1.00;;
9420;SDS011;4749;51.398;5.466;2023-08-01T14:37:13;3.92;;;1.00;;
9420;SDS011;4749;51.398;5.466;2023-08-01T14:39:40;4.35;;;1.15;;
9420;SDS011;4749;51.398;5.466;2023-08-01T14:42:08;3.17;;;1.20;;
9420;SDS011;4749;51.398;5.466;2023-08-01T14:44:35;6.35;;;1.30;;
9420;SDS011;4749;51.398;5.466;2023-08-01T14:47:02;3.33;;;1.40;;
9420;SDS011;4749;51.398;5.466;2023-08-01T14:49:30;2.80;;;1.00;;
9420;SDS011;4749;51.398;5.466;2023-08-01T14:51:57;3.45;;;1.10;;
9420;SDS011;4749;51.398;5.466;2023-08-01T14:54:24;3.05;;;0.93;;
9420;SDS011;4749;51.398;5.466;2023-08-01T14:56:55;4.57;;;1.00;;
9420;SDS011;4749;51.398;5.466;2023-08-01T14:59:22;4.70;;;0.85;;
9420;SDS011;4749;51.398;5.466;2023-08-01T15:01:49;4.35;;;1.20;;
9420;SDS011;4749;51.398;5.466;2023-08-01T15:04:16;2.72;;;1.30;;
9420;SDS011;4749;51.398;5.466;2023-08-01T15:06:43;4.97;;;0.90;;
9420;SDS011;4749;51.398;5.466;2023-08-01T15:09:11;2.38;;;1.00;;
9420;SDS011;4749;51.398;5.466;2023-08-01T15:11:38;4.30;;;1.15;;
9420;SDS011;4749;51.398;5.466;2023-08-01T15:14:06;3.15;;;0.93;;
9420;SDS011;4749;51.398;5.466;2023-08-01T15:16:33;2.83;;;1.15;;
9420;SDS011;4749;51.398;5.466;2023-08-01T15:19:00;6.45;;;1.33;;
9420;SDS011;4749;51.398;5.466;2023-08-01T15:21:27;4.65;;;1.10;;